Shinsei — JD3674 — position and weather

sailwx.info

Track history (hours):
 
Tides and Currents Weather Stations Pressure Air Temp Water Temp Dewpoint Dewpoint Depression Visibility Wind Speed Wind Dir Waves Ship Positions

Shinsei

Last reported at 2018-Feb-19 03:50 UTC. Time now 2018-Feb-19 04:23 UTC.
Position N 34°41' E 136°32'.

Length 74 m; draft 4.7 m.

Type: Cargo ship. MMSI: 431005241.

Date/timePositionNaut miles runAvg speedWind from/ knotsBaromVisibWave heightAir tempDewpointWater temp
2018-Feb-19 03:50N 34°41' E 136°32'0 0.0
2018-Feb-19 03:26N 34°41' E 136°32'0 0.0
2018-Feb-19 02:56N 34°41' E 136°32'0 0.0
2018-Feb-19 02:26N 34°41' E 136°32'1 2.2
2018-Feb-19 01:55N 34°41' E 136°33'1 2.8
2018-Feb-19 01:28N 34°41' E 136°35'4 7.6
2018-Feb-19 00:53N 34°40' E 136°40'2510.5
2018-Feb-18 22:29N 34°33' E 137°10'8110.3
2018-Feb-18 14:38N 34°36' E 138°48'5 8.9
2018-Feb-18 14:02N 34°35' E 138°54'0 8.1
2018-Feb-18 14:00N 34°36' E 138°55'15 9.9
2018-Feb-18 12:26N 34°46' E 139°09'2410.3
2018-Feb-18 10:08N 35°00' E 139°32'110.4
2018-Feb-18 10:00N 35°01' E 139°33'610.6
2018-Feb-18 09:29N 35°05' E 139°38'611.8
2018-Feb-18 09:00N 35°09' E 139°43'611.4
2018-Feb-18 08:30N 35°14' E 139°46'510.7
2018-Feb-18 08:00N 35°19' E 139°43'510.6
2018-Feb-18 07:30N 35°24' E 139°42'4 8.5
2018-Feb-18 07:00N 35°28' E 139°43'0 0.0
2018-Feb-18 06:30N 35°28' E 139°43'0 0.0
2018-Feb-18 06:00N 35°28' E 139°43'0 0.0
2018-Feb-18 05:30N 35°28' E 139°43'0 0.0
2018-Feb-18 05:00N 35°28' E 139°43'0 0.0
2018-Feb-18 04:28N 35°28' E 139°43'0 0.0
2018-Feb-18 03:58N 35°28' E 139°43'0 0.0
2018-Feb-18 03:28N 35°28' E 139°43'0 0.0
2018-Feb-18 02:58N 35°28' E 139°43'0 0.0
2018-Feb-18 02:25N 35°28' E 139°43'0 0.0
2018-Feb-18 01:58N 35°28' E 139°43'0 0.0
2018-Feb-18 01:28N 35°28' E 139°43'0 0.0
2018-Feb-18 00:58N 35°28' E 139°43'0 0.0
2018-Feb-18 00:28N 35°28' E 139°43'0 0.0
2018-Feb-17 23:58N 35°28' E 139°43'0 0.0
2018-Feb-17 23:28N 35°28' E 139°43'0 0.0
2018-Feb-17 22:58N 35°28' E 139°43'0 0.0
2018-Feb-17 22:28N 35°28' E 139°43'0 0.0
2018-Feb-17 21:58N 35°28' E 139°43'0 0.0
2018-Feb-17 21:28N 35°28' E 139°43'0 0.0
2018-Feb-17 20:58N 35°28' E 139°43'0 0.0
2018-Feb-17 20:25N 35°28' E 139°43'0 0.0
2018-Feb-17 19:58N 35°28' E 139°43'0 0.0
2018-Feb-17 19:28N 35°28' E 139°43'0 0.0
2018-Feb-17 18:58N 35°28' E 139°43'0 0.0
2018-Feb-17 18:25N 35°28' E 139°43'0 0.0
2018-Feb-17 17:58N 35°28' E 139°43'0 0.0
2018-Feb-17 17:28N 35°28' E 139°43'0 0.0
2018-Feb-17 16:58N 35°28' E 139°43'0 0.0
2018-Feb-17 16:28N 35°28' E 139°43'0 0.0
2018-Feb-17 15:58N 35°28' E 139°43'0 0.0
2018-Feb-17 15:28N 35°28' E 139°43'0 0.0
2018-Feb-17 14:58N 35°28' E 139°43'0 0.0
2018-Feb-17 14:28N 35°28' E 139°43'0 0.0
2018-Feb-17 13:58N 35°28' E 139°43'0 0.0
2018-Feb-17 13:28N 35°28' E 139°43'0 0.0
2018-Feb-17 12:58N 35°28' E 139°43'0 0.0
2018-Feb-17 12:28N 35°28' E 139°43'0 0.0
2018-Feb-17 11:58N 35°28' E 139°43'0 0.0
2018-Feb-17 11:28N 35°28' E 139°43'0 0.0
2018-Feb-17 10:58N 35°28' E 139°43'0 0.0
2018-Feb-17 10:28N 35°28' E 139°43'0 0.0
2018-Feb-17 09:58N 35°28' E 139°43'0 0.0
2018-Feb-17 09:28N 35°28' E 139°43'0 0.0
2018-Feb-17 08:58N 35°28' E 139°43'0 0.0
2018-Feb-17 08:28N 35°28' E 139°43'0 0.4
2018-Feb-17 08:00N 35°28' E 139°42'0 0.0
2018-Feb-17 07:30N 35°28' E 139°42'0 0.0
2018-Feb-17 07:00N 35°28' E 139°42'0 0.0
2018-Feb-17 06:21N 35°28' E 139°42'0 0.0
2018-Feb-17 06:00N 35°28' E 139°42'0 0.0
2018-Feb-17 05:30N 35°28' E 139°42'0 0.0
2018-Feb-17 05:00N 35°28' E 139°42'0 0.0
2018-Feb-17 04:30N 35°28' E 139°42'0 0.0
2018-Feb-17 04:00N 35°28' E 139°42'0 0.0
2018-Feb-17 03:30N 35°28' E 139°42'0 0.0
2018-Feb-17 03:00N 35°28' E 139°42'0 0.0
2018-Feb-17 02:30N 35°28' E 139°42'0 0.0
2018-Feb-17 02:00N 35°28' E 139°42'0 0.0
2018-Feb-17 01:30N 35°28' E 139°42'0 0.0
2018-Feb-17 01:00N 35°28' E 139°42'0 0.0
2018-Feb-17 00:30N 35°28' E 139°42'0 0.0
2018-Feb-17 00:00N 35°28' E 139°42'0 0.1
2018-Feb-16 23:31N 35°28' E 139°42'1 2.5
2018-Feb-16 22:58N 35°27' E 139°42'0 0.0
2018-Feb-16 22:28N 35°27' E 139°42'0 0.1
2018-Feb-16 21:58N 35°27' E 139°42'0 0.0
2018-Feb-16 21:28N 35°27' E 139°42'0 0.0
2018-Feb-16 20:58N 35°27' E 139°42'0 0.0
2018-Feb-16 20:28N 35°27' E 139°42'0 0.0
2018-Feb-16 19:58N 35°27' E 139°42'0 0.0
2018-Feb-16 19:28N 35°27' E 139°42'0 0.0
2018-Feb-16 18:58N 35°27' E 139°42'0 0.0
2018-Feb-16 18:28N 35°27' E 139°42'0 0.0
2018-Feb-16 17:58N 35°27' E 139°42'0 0.0
2018-Feb-16 17:28N 35°27' E 139°42'0 0.0
2018-Feb-16 16:58N 35°27' E 139°42'0 0.0
2018-Feb-16 16:25N 35°27' E 139°42'0 0.0
2018-Feb-16 15:58N 35°27' E 139°42'0 0.0
2018-Feb-16 15:28N 35°27' E 139°42'0 0.0
2018-Feb-16 14:58N 35°27' E 139°42'0 0.1
2018-Feb-16 14:28N 35°27' E 139°42'0 0.0
2018-Feb-16 13:58N 35°27' E 139°42'0 0.0
2018-Feb-16 13:28N 35°27' E 139°42'0 0.0
2018-Feb-16 12:58N 35°27' E 139°42'0 0.0
2018-Feb-16 12:28N 35°27' E 139°42'0 0.0
2018-Feb-16 11:58N 35°27' E 139°42'0 0.0
2018-Feb-16 11:28N 35°27' E 139°42'0 0.0
2018-Feb-16 10:58N 35°27' E 139°42'0 0.0
2018-Feb-16 10:28N 35°27' E 139°42'0 0.0
2018-Feb-16 09:58N 35°27' E 139°42'0 0.0
2018-Feb-16 09:25N 35°27' E 139°42'0 0.0
2018-Feb-16 08:58N 35°27' E 139°42'0 0.0
2018-Feb-16 08:28N 35°27' E 139°42'0 0.0
2018-Feb-16 07:58N 35°27' E 139°42'0 0.0
2018-Feb-16 07:28N 35°27' E 139°42'0 0.0
2018-Feb-16 06:58N 35°27' E 139°42'0 0.0
2018-Feb-16 06:25N 35°27' E 139°42'0 0.0
2018-Feb-16 05:58N 35°27' E 139°42'0 0.0
2018-Feb-16 05:28N 35°27' E 139°42'0 0.0
2018-Feb-16 04:52N 35°27' E 139°42'0 0.0
2018-Feb-16 04:28N 35°27' E 139°42'0 0.0
2018-Feb-16 03:58N 35°27' E 139°42'0 0.0
2018-Feb-16 03:28N 35°27' E 139°42'0 0.0
2018-Feb-16 02:58N 35°27' E 139°42'0 0.0
2018-Feb-16 02:28N 35°27' E 139°42'0 0.0
2018-Feb-16 01:58N 35°27' E 139°42'0 0.0
2018-Feb-16 01:28N 35°27' E 139°42'0 0.0
2018-Feb-16 00:58N 35°27' E 139°42'0 0.0
2018-Feb-16 00:28N 35°27' E 139°42'0 0.0
2018-Feb-15 23:58N 35°27' E 139°42'0 0.0
2018-Feb-15 23:28N 35°27' E 139°42'0 0.1
2018-Feb-15 22:58N 35°27' E 139°42'0 0.0
2018-Feb-15 22:28N 35°27' E 139°42'0 0.0
2018-Feb-15 21:58N 35°27' E 139°42'0 0.0
2018-Feb-15 21:28N 35°27' E 139°42'0 0.0
2018-Feb-15 20:58N 35°27' E 139°42'0 0.0
2018-Feb-15 20:28N 35°27' E 139°42'0 0.0
2018-Feb-15 19:58N 35°27' E 139°42'0 0.0
2018-Feb-15 19:28N 35°27' E 139°42'0 0.0
2018-Feb-15 18:58N 35°27' E 139°42'0 0.0
2018-Feb-15 18:28N 35°27' E 139°42'0 0.0
2018-Feb-15 17:58N 35°27' E 139°42'0 0.0
2018-Feb-15 17:28N 35°27' E 139°42'0 0.0
2018-Feb-15 16:58N 35°27' E 139°42'0 0.0
2018-Feb-15 16:28N 35°27' E 139°42'0 0.0
2018-Feb-15 15:58N 35°27' E 139°42'0 0.0
2018-Feb-15 15:28N 35°27' E 139°42'0 0.0
2018-Feb-15 14:58N 35°27' E 139°42'0 0.0
2018-Feb-15 14:28N 35°27' E 139°42'0 0.1
2018-Feb-15 13:58N 35°27' E 139°42'0 0.0
2018-Feb-15 13:25N 35°27' E 139°42'0 0.0
2018-Feb-15 12:58N 35°27' E 139°42'0 0.0
2018-Feb-15 12:28N 35°27' E 139°42'0 0.0
2018-Feb-15 11:58N 35°27' E 139°42'0 0.0
2018-Feb-15 11:28N 35°27' E 139°42'0 0.0
2018-Feb-15 10:58N 35°27' E 139°42'0 0.0
2018-Feb-15 10:28N 35°27' E 139°42'2 4.3
2018-Feb-15 10:01N 35°28' E 139°40'1 1.7
2018-Feb-15 09:30N 35°29' E 139°39'0 0.0
2018-Feb-15 09:00N 35°29' E 139°39'0 0.1
2018-Feb-15 08:30N 35°29' E 139°39'0 0.0
2018-Feb-15 08:00N 35°29' E 139°39'0 0.0
2018-Feb-15 07:31N 35°29' E 139°39'3 6.3
2018-Feb-15 07:01N 35°27' E 139°42'613.0
2018-Feb-15 06:30N 35°29' E 139°50'912.9
2018-Feb-15 05:51N 35°35' E 139°56'6 0.4
2018-Feb-14 15:51N 35°41' E 139°58'3 7.0
2018-Feb-14 15:27N 35°38' E 139°59'611.3
2018-Feb-14 14:57N 35°33' E 139°56'511.6
2018-Feb-14 14:30N 35°29' E 139°52'612.3
2018-Feb-14 14:00N 35°25' E 139°47'612.3
2018-Feb-14 13:31N 35°19' E 139°44'611.1
2018-Feb-14 13:00N 35°14' E 139°47'611.5
2018-Feb-14 12:30N 35°08' E 139°45'612.0
2018-Feb-14 11:58N 35°03' E 139°40'813.4
2018-Feb-14 11:20N 34°58' E 139°32'514.4
2018-Feb-14 11:00N 34°56' E 139°27'714.4
2018-Feb-14 10:30N 34°52' E 139°20'714.1
2018-Feb-14 10:00N 34°47' E 139°13'713.1
2018-Feb-14 09:30N 34°43' E 139°07'612.1
2018-Feb-14 09:00N 34°39' E 139°02'612.6
2018-Feb-14 08:31N 34°35' E 138°55'813.0
2018-Feb-14 07:55N 34°35' E 138°46'612.4
2018-Feb-14 07:28N 34°34' E 138°39'611.7
2018-Feb-14 06:59N 34°33' E 138°33'611.6
2018-Feb-14 06:28N 34°33' E 138°25'612.5
2018-Feb-14 05:59N 34°32' E 138°18'16410.7
2018-Feb-13 14:38N 33°48' E 135°07'212.4
2018-Feb-13 14:29N 33°50' E 135°05'612.5
2018-Feb-13 14:00N 33°55' E 135°02'612.9
2018-Feb-13 13:30N 34°01' E 135°02'612.8
2018-Feb-13 13:01N 34°08' E 135°02'713.0
2018-Feb-13 12:30N 34°14' E 135°03'612.6
2018-Feb-13 12:01N 34°20' E 135°05'612.4
2018-Feb-13 11:31N 34°25' E 135°10'612.1
2018-Feb-13 11:01N 34°30' E 135°14'612.2
2018-Feb-13 10:30N 34°35' E 135°19'612.1
2018-Feb-13 10:00N 34°39' E 135°24'3 5.8
2018-Feb-13 09:30N 34°38' E 135°28'0 0.0
2018-Feb-13 09:00N 34°38' E 135°28'0 0.0
2018-Feb-13 08:30N 34°38' E 135°28'0 0.0
2018-Feb-13 08:00N 34°38' E 135°28'0 0.0
2018-Feb-13 07:30N 34°38' E 135°28'0 0.0
2018-Feb-13 07:00N 34°38' E 135°28'0 0.0
2018-Feb-13 06:30N 34°38' E 135°28'0 0.0
2018-Feb-13 06:00N 34°38' E 135°28'0 0.0
2018-Feb-13 05:30N 34°38' E 135°28'0 0.0
2018-Feb-13 05:00N 34°38' E 135°28'0 0.0
2018-Feb-13 04:30N 34°38' E 135°28'0 0.0
2018-Feb-13 04:00N 34°38' E 135°28'0 0.0
2018-Feb-13 03:30N 34°38' E 135°28'0 0.0
2018-Feb-13 02:57N 34°38' E 135°28'0 0.0
2018-Feb-13 02:30N 34°38' E 135°28'0 0.0
2018-Feb-13 02:00N 34°38' E 135°28'0 0.0
2018-Feb-13 01:30N 34°38' E 135°28'0 0.0
2018-Feb-13 01:00N 34°38' E 135°28'0 0.0
2018-Feb-13 00:30N 34°38' E 135°28'0 0.0
2018-Feb-13 00:00N 34°38' E 135°28'0 0.0
2018-Feb-12 23:30N 34°38' E 135°28'0 0.0
2018-Feb-12 23:00N 34°38' E 135°28'0 0.0
2018-Feb-12 22:27N 34°38' E 135°28'0 0.0
2018-Feb-12 22:00N 34°38' E 135°28'0 0.0
2018-Feb-12 21:30N 34°38' E 135°28'0 0.0
2018-Feb-12 21:00N 34°38' E 135°28'0 0.0
2018-Feb-12 20:30N 34°38' E 135°28'0 0.0
2018-Feb-12 20:00N 34°38' E 135°28'0 0.0
2018-Feb-12 19:30N 34°38' E 135°28'0 0.0
2018-Feb-12 19:00N 34°38' E 135°28'0 0.0
2018-Feb-12 18:30N 34°38' E 135°28'0 0.0
2018-Feb-12 18:00N 34°38' E 135°28'0 0.0
2018-Feb-12 17:30N 34°38' E 135°28'0 0.0
2018-Feb-12 17:00N 34°38' E 135°28'0 0.0
2018-Feb-12 16:30N 34°38' E 135°28'0 0.0
2018-Feb-12 16:00N 34°38' E 135°28'0 0.0
2018-Feb-12 15:15N 34°38' E 135°28'0 0.0
2018-Feb-12 15:00N 34°38' E 135°28'0 0.0
2018-Feb-12 14:30N 34°38' E 135°28'0 0.0
2018-Feb-12 14:00N 34°38' E 135°28'0 0.0
2018-Feb-12 13:30N 34°38' E 135°28'0 0.0
2018-Feb-12 13:00N 34°38' E 135°28'0 0.0
2018-Feb-12 12:30N 34°38' E 135°28'0 0.0
2018-Feb-12 12:00N 34°38' E 135°28'0 0.0
2018-Feb-12 11:30N 34°38' E 135°28'0 0.0
2018-Feb-12 11:00N 34°38' E 135°28'0 0.0
2018-Feb-12 10:30N 34°38' E 135°28'0 0.0
2018-Feb-12 10:00N 34°38' E 135°28'0 0.0
2018-Feb-12 09:30N 34°38' E 135°28'0 0.0
2018-Feb-12 09:00N 34°38' E 135°28'0 0.0
2018-Feb-12 08:30N 34°38' E 135°28'0 0.0
2018-Feb-12 08:00N 34°38' E 135°28'0 0.4
2018-Feb-12 07:31N 34°37' E 135°27'1 2.6
2018-Feb-12 06:59N 34°39' E 135°28'0 0.0
2018-Feb-12 06:29N 34°39' E 135°28'0 0.0
2018-Feb-12 05:59N 34°39' E 135°28'0 0.0
2018-Feb-12 05:26N 34°39' E 135°28'0 0.0
2018-Feb-12 04:59N 34°39' E 135°28'0 0.0
2018-Feb-11 15:28N 34°39' E 135°28'1 3.0
2018-Feb-11 15:00N 34°38' E 135°27'0 0.5
2018-Feb-11 14:28N 34°38' E 135°27'0 0.0
2018-Feb-11 13:58N 34°38' E 135°27'0 0.0
2018-Feb-11 13:28N 34°38' E 135°27'0 0.0
2018-Feb-11 12:58N 34°38' E 135°27'0 0.0
2018-Feb-11 12:28N 34°38' E 135°27'0 0.0
2018-Feb-11 11:58N 34°38' E 135°27'0 0.0
2018-Feb-11 11:28N 34°38' E 135°27'0 0.0
2018-Feb-11 10:58N 34°38' E 135°27'0 0.0
2018-Feb-11 10:28N 34°38' E 135°27'0 0.0
2018-Feb-11 09:58N 34°38' E 135°27'0 0.0
2018-Feb-11 09:28N 34°38' E 135°27'0 0.0
2018-Feb-11 08:58N 34°38' E 135°27'0 0.0
2018-Feb-11 08:28N 34°38' E 135°27'0 0.0
2018-Feb-11 07:55N 34°38' E 135°27'0 0.0
2018-Feb-11 07:28N 34°38' E 135°27'0 0.0
2018-Feb-11 06:49N 34°38' E 135°27'0 0.0
2018-Feb-11 06:28N 34°38' E 135°27'0 0.0
2018-Feb-11 05:55N 34°38' E 135°27'0 0.0
2018-Feb-11 05:28N 34°38' E 135°27'0 0.0
2018-Feb-11 04:58N 34°38' E 135°27'0 0.0
2018-Feb-11 04:28N 34°38' E 135°27'0 0.0
2018-Feb-11 03:58N 34°38' E 135°27'0 0.0
2018-Feb-11 03:19N 34°38' E 135°27'0 0.0
2018-Feb-11 02:58N 34°38' E 135°27'0 0.0
2018-Feb-11 02:28N 34°38' E 135°27'0 0.0
2018-Feb-11 02:00N 34°38' E 135°27'1 2.3
2018-Feb-11 01:30N 34°39' E 135°27'1 2.3
2018-Feb-11 01:00N 34°39' E 135°25'610.9
2018-Feb-11 00:30N 34°36' E 135°19'612.4
2018-Feb-11 00:01N 34°35' E 135°12'612.2
2018-Feb-10 23:30N 34°35' E 135°05'510.8
2018-Feb-10 23:00N 34°37' E 134°59'611.5
2018-Feb-10 22:30N 34°34' E 134°52'510.8
2018-Feb-10 22:00N 34°32' E 134°46'611.9
2018-Feb-10 21:30N 34°30' E 134°39'612.1
2018-Feb-10 21:00N 34°28' E 134°33'712.2
2018-Feb-10 20:27N 34°25' E 134°25'1111.5
2018-Feb-10 19:32N 34°24' E 134°12'7410.7
2018-Feb-10 12:39N 34°05' E 132°46'212.2
2018-Feb-10 12:27N 34°04' E 132°44'612.1
2018-Feb-10 12:00N 34°02' E 132°38'711.9
2018-Feb-10 11:27N 33°57' E 132°32'1012.1
2018-Feb-10 10:38N 33°51' E 132°23'212.1
2018-Feb-10 10:30N 33°50' E 132°21'612.6
2018-Feb-10 10:00N 33°50' E 132°14'612.1
2018-Feb-10 09:30N 33°47' E 132°07'812.5
2018-Feb-10 08:51N 33°45' E 131°58'412.9
2018-Feb-10 08:30N 33°46' E 131°52'713.0
2018-Feb-10 08:00N 33°47' E 131°44'612.9
2018-Feb-10 07:30N 33°48' E 131°37'612.8
2018-Feb-10 07:00N 33°49' E 131°29'612.7
2018-Feb-10 06:30N 33°50' E 131°22'612.4
2018-Feb-10 06:00N 33°51' E 131°14'4 8.5
2018-Feb-10 05:30N 33°55' E 131°13'0 0.0
2018-Feb-10 04:58N 33°55' E 131°13'0 0.1
2018-Feb-10 04:28N 33°55' E 131°13'0 0.0
2018-Feb-10 03:58N 33°55' E 131°13'0 0.0
2018-Feb-10 03:28N 33°55' E 131°13'0 0.0
2018-Feb-10 02:58N 33°55' E 131°13'0 0.0
2018-Feb-10 02:28N 33°55' E 131°13'0 0.0
2018-Feb-10 01:55N 33°55' E 131°13'0 0.0
2018-Feb-10 01:28N 33°55' E 131°13'0 0.0
2018-Feb-10 00:58N 33°55' E 131°13'0 0.0
2018-Feb-10 00:28N 33°55' E 131°13'0 0.0
2018-Feb-09 23:58N 33°55' E 131°13'0 0.0
2018-Feb-09 23:28N 33°55' E 131°13'0 0.1
2018-Feb-09 22:58N 33°55' E 131°13'0 0.0
2018-Feb-09 22:46N 33°55' E 131°13'0 0.0
2018-Feb-09 12:30N 33°55' E 131°13'0 0.0
2018-Feb-09 12:00N 33°55' E 131°13'0 0.0
2018-Feb-09 11:30N 33°55' E 131°13'3 1.1
2018-Feb-09 09:00N 33°57' E 131°14'0 0.0
2018-Feb-09 08:00N 33°57' E 131°14'0 0.0
2018-Feb-09 07:30N 33°57' E 131°14'0 0.0
2018-Feb-09 06:00N 33°57' E 131°14'0 0.0
2018-Feb-09 05:30N 33°57' E 131°14'  
Track history (hours):
 
Tides and Currents Weather Stations Pressure Air Temp Water Temp Dewpoint Dewpoint Depression Visibility Wind Speed Wind Dir Waves Ship Positions

Shinsei

Last reported at 2018-Feb-19 03:50 UTC. Time now 2018-Feb-19 04:23 UTC.
Position N 34°41' E 136°32'.

Length 74 m; draft 4.7 m.

Type: Cargo ship. MMSI: 431005241.

Date/timePositionNaut miles runAvg speedWind from/ knotsBaromVisibWave heightAir tempDewpointWater temp
2018-Feb-19 03:50N 34°41' E 136°32'0 0.0
2018-Feb-19 03:26N 34°41' E 136°32'0 0.0
2018-Feb-19 02:56N 34°41' E 136°32'0 0.0
2018-Feb-19 02:26N 34°41' E 136°32'1 2.2
2018-Feb-19 01:55N 34°41' E 136°33'1 2.8
2018-Feb-19 01:28N 34°41' E 136°35'4 7.6
2018-Feb-19 00:53N 34°40' E 136°40'2510.5
2018-Feb-18 22:29N 34°33' E 137°10'8110.3
2018-Feb-18 14:38N 34°36' E 138°48'5 8.9
2018-Feb-18 14:02N 34°35' E 138°54'0 8.1
2018-Feb-18 14:00N 34°36' E 138°55'15 9.9
2018-Feb-18 12:26N 34°46' E 139°09'2410.3
2018-Feb-18 10:08N 35°00' E 139°32'110.4
2018-Feb-18 10:00N 35°01' E 139°33'610.6
2018-Feb-18 09:29N 35°05' E 139°38'611.8
2018-Feb-18 09:00N 35°09' E 139°43'611.4
2018-Feb-18 08:30N 35°14' E 139°46'510.7
2018-Feb-18 08:00N 35°19' E 139°43'510.6
2018-Feb-18 07:30N 35°24' E 139°42'4 8.5
2018-Feb-18 07:00N 35°28' E 139°43'0 0.0
2018-Feb-18 06:30N 35°28' E 139°43'0 0.0
2018-Feb-18 06:00N 35°28' E 139°43'0 0.0
2018-Feb-18 05:30N 35°28' E 139°43'0 0.0
2018-Feb-18 05:00N 35°28' E 139°43'0 0.0
2018-Feb-18 04:28N 35°28' E 139°43'0 0.0
2018-Feb-18 03:58N 35°28' E 139°43'0 0.0
2018-Feb-18 03:28N 35°28' E 139°43'0 0.0
2018-Feb-18 02:58N 35°28' E 139°43'0 0.0
2018-Feb-18 02:25N 35°28' E 139°43'0 0.0
2018-Feb-18 01:58N 35°28' E 139°43'0 0.0
2018-Feb-18 01:28N 35°28' E 139°43'0 0.0
2018-Feb-18 00:58N 35°28' E 139°43'0 0.0
2018-Feb-18 00:28N 35°28' E 139°43'0 0.0
2018-Feb-17 23:58N 35°28' E 139°43'0 0.0
2018-Feb-17 23:28N 35°28' E 139°43'0 0.0
2018-Feb-17 22:58N 35°28' E 139°43'0 0.0
2018-Feb-17 22:28N 35°28' E 139°43'0 0.0
2018-Feb-17 21:58N 35°28' E 139°43'0 0.0
2018-Feb-17 21:28N 35°28' E 139°43'0 0.0
2018-Feb-17 20:58N 35°28' E 139°43'0 0.0
2018-Feb-17 20:25N 35°28' E 139°43'0 0.0
2018-Feb-17 19:58N 35°28' E 139°43'0 0.0
2018-Feb-17 19:28N 35°28' E 139°43'0 0.0
2018-Feb-17 18:58N 35°28' E 139°43'0 0.0
2018-Feb-17 18:25N 35°28' E 139°43'0 0.0
2018-Feb-17 17:58N 35°28' E 139°43'0 0.0
2018-Feb-17 17:28N 35°28' E 139°43'0 0.0
2018-Feb-17 16:58N 35°28' E 139°43'0 0.0
2018-Feb-17 16:28N 35°28' E 139°43'0 0.0
2018-Feb-17 15:58N 35°28' E 139°43'0 0.0
2018-Feb-17 15:28N 35°28' E 139°43'0 0.0
2018-Feb-17 14:58N 35°28' E 139°43'0 0.0
2018-Feb-17 14:28N 35°28' E 139°43'0 0.0
2018-Feb-17 13:58N 35°28' E 139°43'0 0.0
2018-Feb-17 13:28N 35°28' E 139°43'0 0.0
2018-Feb-17 12:58N 35°28' E 139°43'0 0.0
2018-Feb-17 12:28N 35°28' E 139°43'0 0.0
2018-Feb-17 11:58N 35°28' E 139°43'0 0.0
2018-Feb-17 11:28N 35°28' E 139°43'0 0.0
2018-Feb-17 10:58N 35°28' E 139°43'0 0.0
2018-Feb-17 10:28N 35°28' E 139°43'0 0.0
2018-Feb-17 09:58N 35°28' E 139°43'0 0.0
2018-Feb-17 09:28N 35°28' E 139°43'0 0.0
2018-Feb-17 08:58N 35°28' E 139°43'0 0.0
2018-Feb-17 08:28N 35°28' E 139°43'0 0.4
2018-Feb-17 08:00N 35°28' E 139°42'0 0.0
2018-Feb-17 07:30N 35°28' E 139°42'0 0.0
2018-Feb-17 07:00N 35°28' E 139°42'0 0.0
2018-Feb-17 06:21N 35°28' E 139°42'0 0.0
2018-Feb-17 06:00N 35°28' E 139°42'0 0.0
2018-Feb-17 05:30N 35°28' E 139°42'0 0.0
2018-Feb-17 05:00N 35°28' E 139°42'0 0.0
2018-Feb-17 04:30N 35°28' E 139°42'0 0.0
2018-Feb-17 04:00N 35°28' E 139°42'0 0.0
2018-Feb-17 03:30N 35°28' E 139°42'0 0.0
2018-Feb-17 03:00N 35°28' E 139°42'0 0.0
2018-Feb-17 02:30N 35°28' E 139°42'0 0.0
2018-Feb-17 02:00N 35°28' E 139°42'0 0.0
2018-Feb-17 01:30N 35°28' E 139°42'0 0.0
2018-Feb-17 01:00N 35°28' E 139°42'0 0.0
2018-Feb-17 00:30N 35°28' E 139°42'0 0.0
2018-Feb-17 00:00N 35°28' E 139°42'0 0.1
2018-Feb-16 23:31N 35°28' E 139°42'1 2.5
2018-Feb-16 22:58N 35°27' E 139°42'0 0.0
2018-Feb-16 22:28N 35°27' E 139°42'0 0.1
2018-Feb-16 21:58N 35°27' E 139°42'0 0.0
2018-Feb-16 21:28N 35°27' E 139°42'0 0.0
2018-Feb-16 20:58N 35°27' E 139°42'0 0.0
2018-Feb-16 20:28N 35°27' E 139°42'0 0.0
2018-Feb-16 19:58N 35°27' E 139°42'0 0.0
2018-Feb-16 19:28N 35°27' E 139°42'0 0.0
2018-Feb-16 18:58N 35°27' E 139°42'0 0.0
2018-Feb-16 18:28N 35°27' E 139°42'0 0.0
2018-Feb-16 17:58N 35°27' E 139°42'0 0.0
2018-Feb-16 17:28N 35°27' E 139°42'0 0.0
2018-Feb-16 16:58N 35°27' E 139°42'0 0.0
2018-Feb-16 16:25N 35°27' E 139°42'0 0.0
2018-Feb-16 15:58N 35°27' E 139°42'0 0.0
2018-Feb-16 15:28N 35°27' E 139°42'0 0.0
2018-Feb-16 14:58N 35°27' E 139°42'0 0.1
2018-Feb-16 14:28N 35°27' E 139°42'0 0.0
2018-Feb-16 13:58N 35°27' E 139°42'0 0.0
2018-Feb-16 13:28N 35°27' E 139°42'0 0.0
2018-Feb-16 12:58N 35°27' E 139°42'0 0.0
2018-Feb-16 12:28N 35°27' E 139°42'0 0.0
2018-Feb-16 11:58N 35°27' E 139°42'0 0.0
2018-Feb-16 11:28N 35°27' E 139°42'0 0.0
2018-Feb-16 10:58N 35°27' E 139°42'0 0.0
2018-Feb-16 10:28N 35°27' E 139°42'0 0.0
2018-Feb-16 09:58N 35°27' E 139°42'0 0.0
2018-Feb-16 09:25N 35°27' E 139°42'0 0.0
2018-Feb-16 08:58N 35°27' E 139°42'0 0.0
2018-Feb-16 08:28N 35°27' E 139°42'0 0.0
2018-Feb-16 07:58N 35°27' E 139°42'0 0.0
2018-Feb-16 07:28N 35°27' E 139°42'0 0.0
2018-Feb-16 06:58N 35°27' E 139°42'0 0.0
2018-Feb-16 06:25N 35°27' E 139°42'0 0.0
2018-Feb-16 05:58N 35°27' E 139°42'0 0.0
2018-Feb-16 05:28N 35°27' E 139°42'0 0.0
2018-Feb-16 04:52N 35°27' E 139°42'0 0.0
2018-Feb-16 04:28N 35°27' E 139°42'0 0.0
2018-Feb-16 03:58N 35°27' E 139°42'0 0.0
2018-Feb-16 03:28N 35°27' E 139°42'0 0.0
2018-Feb-16 02:58N 35°27' E 139°42'0 0.0
2018-Feb-16 02:28N 35°27' E 139°42'0 0.0
2018-Feb-16 01:58N 35°27' E 139°42'0 0.0
2018-Feb-16 01:28N 35°27' E 139°42'0 0.0
2018-Feb-16 00:58N 35°27' E 139°42'0 0.0
2018-Feb-16 00:28N 35°27' E 139°42'0 0.0
2018-Feb-15 23:58N 35°27' E 139°42'0 0.0
2018-Feb-15 23:28N 35°27' E 139°42'0 0.1
2018-Feb-15 22:58N 35°27' E 139°42'0 0.0
2018-Feb-15 22:28N 35°27' E 139°42'0 0.0
2018-Feb-15 21:58N 35°27' E 139°42'0 0.0
2018-Feb-15 21:28N 35°27' E 139°42'0 0.0
2018-Feb-15 20:58N 35°27' E 139°42'0 0.0
2018-Feb-15 20:28N 35°27' E 139°42'0 0.0
2018-Feb-15 19:58N 35°27' E 139°42'0 0.0
2018-Feb-15 19:28N 35°27' E 139°42'0 0.0
2018-Feb-15 18:58N 35°27' E 139°42'0 0.0
2018-Feb-15 18:28N 35°27' E 139°42'0 0.0
2018-Feb-15 17:58N 35°27' E 139°42'0 0.0
2018-Feb-15 17:28N 35°27' E 139°42'0 0.0
2018-Feb-15 16:58N 35°27' E 139°42'0 0.0
2018-Feb-15 16:28N 35°27' E 139°42'0 0.0
2018-Feb-15 15:58N 35°27' E 139°42'0 0.0
2018-Feb-15 15:28N 35°27' E 139°42'0 0.0
2018-Feb-15 14:58N 35°27' E 139°42'0 0.0
2018-Feb-15 14:28N 35°27' E 139°42'0 0.1
2018-Feb-15 13:58N 35°27' E 139°42'0 0.0
2018-Feb-15 13:25N 35°27' E 139°42'0 0.0
2018-Feb-15 12:58N 35°27' E 139°42'0 0.0
2018-Feb-15 12:28N 35°27' E 139°42'0 0.0
2018-Feb-15 11:58N 35°27' E 139°42'0 0.0
2018-Feb-15 11:28N 35°27' E 139°42'0 0.0
2018-Feb-15 10:58N 35°27' E 139°42'0 0.0
2018-Feb-15 10:28N 35°27' E 139°42'2 4.3
2018-Feb-15 10:01N 35°28' E 139°40'1 1.7
2018-Feb-15 09:30N 35°29' E 139°39'0 0.0
2018-Feb-15 09:00N 35°29' E 139°39'0 0.1
2018-Feb-15 08:30N 35°29' E 139°39'0 0.0
2018-Feb-15 08:00N 35°29' E 139°39'0 0.0
2018-Feb-15 07:31N 35°29' E 139°39'3 6.3
2018-Feb-15 07:01N 35°27' E 139°42'613.0
2018-Feb-15 06:30N 35°29' E 139°50'912.9
2018-Feb-15 05:51N 35°35' E 139°56'6 0.4
2018-Feb-14 15:51N 35°41' E 139°58'3 7.0
2018-Feb-14 15:27N 35°38' E 139°59'611.3
2018-Feb-14 14:57N 35°33' E 139°56'511.6
2018-Feb-14 14:30N 35°29' E 139°52'612.3
2018-Feb-14 14:00N 35°25' E 139°47'612.3
2018-Feb-14 13:31N 35°19' E 139°44'611.1
2018-Feb-14 13:00N 35°14' E 139°47'611.5
2018-Feb-14 12:30N 35°08' E 139°45'612.0
2018-Feb-14 11:58N 35°03' E 139°40'813.4
2018-Feb-14 11:20N 34°58' E 139°32'514.4
2018-Feb-14 11:00N 34°56' E 139°27'714.4
2018-Feb-14 10:30N 34°52' E 139°20'714.1
2018-Feb-14 10:00N 34°47' E 139°13'713.1
2018-Feb-14 09:30N 34°43' E 139°07'612.1
2018-Feb-14 09:00N 34°39' E 139°02'612.6
2018-Feb-14 08:31N 34°35' E 138°55'813.0
2018-Feb-14 07:55N 34°35' E 138°46'612.4
2018-Feb-14 07:28N 34°34' E 138°39'611.7
2018-Feb-14 06:59N 34°33' E 138°33'611.6
2018-Feb-14 06:28N 34°33' E 138°25'612.5
2018-Feb-14 05:59N 34°32' E 138°18'16410.7
2018-Feb-13 14:38N 33°48' E 135°07'212.4
2018-Feb-13 14:29N 33°50' E 135°05'612.5
2018-Feb-13 14:00N 33°55' E 135°02'612.9
2018-Feb-13 13:30N 34°01' E 135°02'612.8
2018-Feb-13 13:01N 34°08' E 135°02'713.0
2018-Feb-13 12:30N 34°14' E 135°03'612.6
2018-Feb-13 12:01N 34°20' E 135°05'612.4
2018-Feb-13 11:31N 34°25' E 135°10'612.1
2018-Feb-13 11:01N 34°30' E 135°14'612.2
2018-Feb-13 10:30N 34°35' E 135°19'612.1
2018-Feb-13 10:00N 34°39' E 135°24'3 5.8
2018-Feb-13 09:30N 34°38' E 135°28'0 0.0
2018-Feb-13 09:00N 34°38' E 135°28'0 0.0
2018-Feb-13 08:30N 34°38' E 135°28'0 0.0
2018-Feb-13 08:00N 34°38' E 135°28'0 0.0
2018-Feb-13 07:30N 34°38' E 135°28'0 0.0
2018-Feb-13 07:00N 34°38' E 135°28'0 0.0
2018-Feb-13 06:30N 34°38' E 135°28'0 0.0
2018-Feb-13 06:00N 34°38' E 135°28'0 0.0
2018-Feb-13 05:30N 34°38' E 135°28'0 0.0
2018-Feb-13 05:00N 34°38' E 135°28'0 0.0
2018-Feb-13 04:30N 34°38' E 135°28'0 0.0
2018-Feb-13 04:00N 34°38' E 135°28'0 0.0
2018-Feb-13 03:30N 34°38' E 135°28'0 0.0
2018-Feb-13 02:57N 34°38' E 135°28'0 0.0
2018-Feb-13 02:30N 34°38' E 135°28'0 0.0
2018-Feb-13 02:00N 34°38' E 135°28'0 0.0
2018-Feb-13 01:30N 34°38' E 135°28'0 0.0
2018-Feb-13 01:00N 34°38' E 135°28'0 0.0
2018-Feb-13 00:30N 34°38' E 135°28'0 0.0
2018-Feb-13 00:00N 34°38' E 135°28'0 0.0
2018-Feb-12 23:30N 34°38' E 135°28'0 0.0
2018-Feb-12 23:00N 34°38' E 135°28'0 0.0
2018-Feb-12 22:27N 34°38' E 135°28'0 0.0
2018-Feb-12 22:00N 34°38' E 135°28'0 0.0
2018-Feb-12 21:30N 34°38' E 135°28'0 0.0
2018-Feb-12 21:00N 34°38' E 135°28'0 0.0
2018-Feb-12 20:30N 34°38' E 135°28'0 0.0
2018-Feb-12 20:00N 34°38' E 135°28'0 0.0
2018-Feb-12 19:30N 34°38' E 135°28'0 0.0
2018-Feb-12 19:00N 34°38' E 135°28'0 0.0
2018-Feb-12 18:30N 34°38' E 135°28'0 0.0
2018-Feb-12 18:00N 34°38' E 135°28'0 0.0
2018-Feb-12 17:30N 34°38' E 135°28'0 0.0
2018-Feb-12 17:00N 34°38' E 135°28'0 0.0
2018-Feb-12 16:30N 34°38' E 135°28'0 0.0
2018-Feb-12 16:00N 34°38' E 135°28'0 0.0
2018-Feb-12 15:15N 34°38' E 135°28'0 0.0
2018-Feb-12 15:00N 34°38' E 135°28'0 0.0
2018-Feb-12 14:30N 34°38' E 135°28'0 0.0
2018-Feb-12 14:00N 34°38' E 135°28'0 0.0
2018-Feb-12 13:30N 34°38' E 135°28'0 0.0
2018-Feb-12 13:00N 34°38' E 135°28'0 0.0
2018-Feb-12 12:30N 34°38' E 135°28'0 0.0
2018-Feb-12 12:00N 34°38' E 135°28'0 0.0
2018-Feb-12 11:30N 34°38' E 135°28'0 0.0
2018-Feb-12 11:00N 34°38' E 135°28'0 0.0
2018-Feb-12 10:30N 34°38' E 135°28'0 0.0
2018-Feb-12 10:00N 34°38' E 135°28'0 0.0
2018-Feb-12 09:30N 34°38' E 135°28'0 0.0
2018-Feb-12 09:00N 34°38' E 135°28'0 0.0
2018-Feb-12 08:30N 34°38' E 135°28'0 0.0
2018-Feb-12 08:00N 34°38' E 135°28'0 0.4
2018-Feb-12 07:31N 34°37' E 135°27'1 2.6
2018-Feb-12 06:59N 34°39' E 135°28'0 0.0
2018-Feb-12 06:29N 34°39' E 135°28'0 0.0
2018-Feb-12 05:59N 34°39' E 135°28'0 0.0
2018-Feb-12 05:26N 34°39' E 135°28'0 0.0
2018-Feb-12 04:59N 34°39' E 135°28'0 0.0
2018-Feb-11 15:28N 34°39' E 135°28'1 3.0
2018-Feb-11 15:00N 34°38' E 135°27'0 0.5
2018-Feb-11 14:28N 34°38' E 135°27'0 0.0
2018-Feb-11 13:58N 34°38' E 135°27'0 0.0
2018-Feb-11 13:28N 34°38' E 135°27'0 0.0
2018-Feb-11 12:58N 34°38' E 135°27'0 0.0
2018-Feb-11 12:28N 34°38' E 135°27'0 0.0
2018-Feb-11 11:58N 34°38' E 135°27'0 0.0
2018-Feb-11 11:28N 34°38' E 135°27'0 0.0
2018-Feb-11 10:58N 34°38' E 135°27'0 0.0
2018-Feb-11 10:28N 34°38' E 135°27'0 0.0
2018-Feb-11 09:58N 34°38' E 135°27'0 0.0
2018-Feb-11 09:28N 34°38' E 135°27'0 0.0
2018-Feb-11 08:58N 34°38' E 135°27'0 0.0
2018-Feb-11 08:28N 34°38' E 135°27'0 0.0
2018-Feb-11 07:55N 34°38' E 135°27'0 0.0
2018-Feb-11 07:28N 34°38' E 135°27'0 0.0
2018-Feb-11 06:49N 34°38' E 135°27'0 0.0
2018-Feb-11 06:28N 34°38' E 135°27'0 0.0
2018-Feb-11 05:55N 34°38' E 135°27'0 0.0
2018-Feb-11 05:28N 34°38' E 135°27'0 0.0
2018-Feb-11 04:58N 34°38' E 135°27'0 0.0
2018-Feb-11 04:28N 34°38' E 135°27'0 0.0
2018-Feb-11 03:58N 34°38' E 135°27'0 0.0
2018-Feb-11 03:19N 34°38' E 135°27'0 0.0
2018-Feb-11 02:58N 34°38' E 135°27'0 0.0
2018-Feb-11 02:28N 34°38' E 135°27'0 0.0
2018-Feb-11 02:00N 34°38' E 135°27'1 2.3
2018-Feb-11 01:30N 34°39' E 135°27'1 2.3
2018-Feb-11 01:00N 34°39' E 135°25'610.9
2018-Feb-11 00:30N 34°36' E 135°19'612.4
2018-Feb-11 00:01N 34°35' E 135°12'612.2
2018-Feb-10 23:30N 34°35' E 135°05'510.8
2018-Feb-10 23:00N 34°37' E 134°59'611.5
2018-Feb-10 22:30N 34°34' E 134°52'510.8
2018-Feb-10 22:00N 34°32' E 134°46'611.9
2018-Feb-10 21:30N 34°30' E 134°39'612.1
2018-Feb-10 21:00N 34°28' E 134°33'712.2
2018-Feb-10 20:27N 34°25' E 134°25'1111.5
2018-Feb-10 19:32N 34°24' E 134°12'7410.7
2018-Feb-10 12:39N 34°05' E 132°46'212.2
2018-Feb-10 12:27N 34°04' E 132°44'612.1
2018-Feb-10 12:00N 34°02' E 132°38'711.9
2018-Feb-10 11:27N 33°57' E 132°32'1012.1
2018-Feb-10 10:38N 33°51' E 132°23'212.1
2018-Feb-10 10:30N 33°50' E 132°21'612.6
2018-Feb-10 10:00N 33°50' E 132°14'612.1
2018-Feb-10 09:30N 33°47' E 132°07'812.5
2018-Feb-10 08:51N 33°45' E 131°58'412.9
2018-Feb-10 08:30N 33°46' E 131°52'713.0
2018-Feb-10 08:00N 33°47' E 131°44'612.9
2018-Feb-10 07:30N 33°48' E 131°37'612.8
2018-Feb-10 07:00N 33°49' E 131°29'612.7
2018-Feb-10 06:30N 33°50' E 131°22'612.4
2018-Feb-10 06:00N 33°51' E 131°14'4 8.5
2018-Feb-10 05:30N 33°55' E 131°13'0 0.0
2018-Feb-10 04:58N 33°55' E 131°13'0 0.1
2018-Feb-10 04:28N 33°55' E 131°13'0 0.0
2018-Feb-10 03:58N 33°55' E 131°13'0 0.0
2018-Feb-10 03:28N 33°55' E 131°13'0 0.0
2018-Feb-10 02:58N 33°55' E 131°13'0 0.0
2018-Feb-10 02:28N 33°55' E 131°13'0 0.0
2018-Feb-10 01:55N 33°55' E 131°13'0 0.0
2018-Feb-10 01:28N 33°55' E 131°13'0 0.0
2018-Feb-10 00:58N 33°55' E 131°13'0 0.0
2018-Feb-10 00:28N 33°55' E 131°13'0 0.0
2018-Feb-09 23:58N 33°55' E 131°13'0 0.0
2018-Feb-09 23:28N 33°55' E 131°13'0 0.1
2018-Feb-09 22:58N 33°55' E 131°13'0 0.0
2018-Feb-09 22:46N 33°55' E 131°13'0 0.0
2018-Feb-09 12:30N 33°55' E 131°13'0 0.0
2018-Feb-09 12:00N 33°55' E 131°13'0 0.0
2018-Feb-09 11:30N 33°55' E 131°13'3 1.1
2018-Feb-09 09:00N 33°57' E 131°14'0 0.0
2018-Feb-09 08:00N 33°57' E 131°14'0 0.0
2018-Feb-09 07:30N 33°57' E 131°14'0 0.0
2018-Feb-09 06:00N 33°57' E 131°14'0 0.0
2018-Feb-09 05:30N 33°57' E 131°14'  

Dump ship's entire track history